Time;durP1;ratioP1;P1;durP2;ratioP2;P2;SDS_P1;SDS_P2;PMS_P1;PMS_P2;Temp;Humidity;BMP_temperature;BMP_pressure;BME280_temperature;BME280_humidity;BME280_pressure;Samples;Min_cycle;Max_cycle;Signal;HPM_P1;HPM_P2
2022/09/26 00:01:43;;;;;;;11.80;8.50;;;11.30;99.90;;;;;;4994741;28;20596;-68
2022/09/26 00:04:17;;;;;;;12.67;8.13;;;11.30;99.90;;;;;;4994612;28;20202;-67
2022/09/26 00:06:52;;;;;;;10.03;8.03;;;11.20;99.90;;;;;;4994692;28;20189;-68
2022/09/26 00:09:21;;;;;;;9.23;7.87;;;11.20;99.90;;;;;;4994734;28;20219;-68
2022/09/26 00:11:52;;;;;;;10.30;7.82;;;11.20;99.90;;;;;;4994503;28;20197;-68
2022/09/26 00:14:23;;;;;;;11.40;8.00;;;11.10;99.90;;;;;;4993470;28;20202;-68
2022/09/26 00:16:52;;;;;;;13.57;8.03;;;11.10;99.90;;;;;;4994409;28;20189;-67
2022/09/26 00:19:22;;;;;;;14.43;7.97;;;11.10;99.90;;;;;;4994519;28;20561;-68
2022/09/26 00:21:51;;;;;;;14.63;9.27;;;11.10;99.90;;;;;;4994322;28;20237;-67
2022/09/26 00:24:20;;;;;;;13.50;8.47;;;11.10;99.90;;;;;;4994150;28;20198;-67
2022/09/26 00:26:48;;;;;;;11.03;7.30;;;11.10;99.90;;;;;;4994275;28;20190;-67
2022/09/26 00:29:18;;;;;;;12.27;8.32;;;11.10;99.90;;;;;;4994194;28;20205;-67
2022/09/26 00:31:47;;;;;;;12.88;8.60;;;11.10;99.90;;;;;;4976836;28;20197;-68
2022/09/26 00:34:18;;;;;;;13.82;8.77;;;11.10;99.90;;;;;;4994021;28;20200;-67
2022/09/26 00:36:49;;;;;;;12.00;8.53;;;11.10;99.90;;;;;;4993898;28;20536;-67
2022/09/26 00:39:18;;;;;;;13.50;8.53;;;11.10;99.90;;;;;;4976678;28;20209;-68
2022/09/26 00:41:47;;;;;;;14.80;9.60;;;11.10;99.90;;;;;;4993839;28;20237;-67
2022/09/26 00:44:48;;;;;;;15.63;9.23;;;11.00;99.90;;;;;;4993877;28;20210;-68
2022/09/26 00:47:45;;;;;;;14.27;9.03;;;11.00;99.90;;;;;;4918443;29;20191;-68
2022/09/26 00:50:20;;;;;;;10.98;8.93;;;11.00;99.90;;;;;;4949143;28;20197;-67
2022/09/26 00:52:56;;;;;;;16.60;9.67;;;11.00;99.90;;;;;;4976390;28;20193;-67
2022/09/26 00:55:27;;;;;;;17.00;8.83;;;11.00;99.90;;;;;;4993662;28;20217;-67
2022/09/26 00:58:03;;;;;;;14.20;9.23;;;11.00;99.90;;;;;;4993652;28;20197;-66
2022/09/26 01:00:33;;;;;;;12.27;9.73;;;11.00;99.90;;;;;;4993700;28;20189;-67
2022/09/26 01:03:03;;;;;;;16.27;9.60;;;11.00;99.90;;;;;;4976246;28;20225;-67
2022/09/26 01:05:34;;;;;;;15.17;9.33;;;11.00;99.90;;;;;;4993493;28;20225;-67
2022/09/26 01:08:04;;;;;;;11.80;9.00;;;11.00;99.90;;;;;;4992901;28;20201;-67
2022/09/26 01:10:34;;;;;;;12.47;9.10;;;11.00;99.90;;;;;;4993562;28;20209;-66
2022/09/26 01:13:04;;;;;;;12.70;9.60;;;11.00;99.90;;;;;;4976116;28;20204;-67
2022/09/26 01:15:36;;;;;;;15.03;9.90;;;11.00;99.90;;;;;;4976004;28;20217;-67
2022/09/26 01:18:06;;;;;;;14.57;9.37;;;11.00;99.90;;;;;;4993351;28;20197;-66
2022/09/26 01:20:46;;;;;;;12.20;8.90;;;11.00;99.90;;;;;;4993559;28;20194;-67
2022/09/26 01:23:45;;;;;;;13.47;9.10;;;11.10;99.90;;;;;;4992452;28;20229;-66
2022/09/26 01:26:39;;;;;;;10.30;8.03;;;11.10;99.90;;;;;;4985197;28;20307;-66
2022/09/26 01:29:44;;;;;;;11.70;9.03;;;11.00;99.90;;;;;;4956610;28;20560;-67
2022/09/26 01:35:25;;;;;;;12.47;8.53;;;11.10;99.90;;;;;;4955892;28;20229;-69
2022/09/26 01:38:05;;;;;;;11.43;7.63;;;11.10;99.90;;;;;;4973556;28;20202;-68
2022/09/26 01:40:43;;;;;;;12.23;7.93;;;11.10;99.90;;;;;;4956427;28;20197;-68
2022/09/26 01:43:20;;;;;;;12.27;7.60;;;11.10;99.90;;;;;;4956705;28;20690;-67
2022/09/26 01:45:52;;;;;;;11.97;7.73;;;11.10;99.90;;;;;;4956357;28;20218;-66
2022/09/26 01:51:19;;;;;;;11.53;8.10;;;11.10;99.90;;;;;;4954215;28;20665;-67
2022/09/26 01:53:53;;;;;;;12.90;8.27;;;11.10;99.90;;;;;;4956364;28;20190;-66
2022/09/26 01:56:25;;;;;;;12.23;7.63;;;11.10;99.90;;;;;;4955832;28;20682;-66
2022/09/26 01:58:59;;;;;;;10.85;6.50;;;11.10;99.90;;;;;;4956173;28;20189;-67
2022/09/26 02:01:35;;;;;;;12.47;7.03;;;11.00;99.90;;;;;;4956245;28;20187;-67
2022/09/26 02:04:09;;;;;;;10.40;6.70;;;11.00;99.90;;;;;;4973338;28;20230;-67
2022/09/26 02:06:44;;;;;;;15.20;7.90;;;11.00;99.90;;;;;;4956257;28;20680;-67
2022/09/26 02:09:17;;;;;;;11.40;6.97;;;11.00;99.90;;;;;;4956187;28;20190;-65
2022/09/26 02:11:49;;;;;;;12.40;7.00;;;11.00;99.90;;;;;;4973359;28;20209;-68
2022/09/26 02:14:21;;;;;;;11.33;6.60;;;11.00;99.90;;;;;;4956145;28;20214;-67
2022/09/26 02:16:53;;;;;;;10.23;7.40;;;11.00;99.90;;;;;;4956186;28;20183;-67
2022/09/26 02:19:28;;;;;;;14.50;7.70;;;11.00;99.90;;;;;;4973295;28;20191;-67
2022/09/26 02:21:58;;;;;;;10.50;7.20;;;11.00;99.90;;;;;;4973253;28;20187;-66
2022/09/26 02:24:28;;;;;;;9.83;7.07;;;11.00;99.90;;;;;;4955841;28;20234;-67
2022/09/26 02:26:57;;;;;;;11.60;6.53;;;11.00;99.90;;;;;;4956035;28;20642;-67
2022/09/26 02:29:26;;;;;;;12.75;7.75;;;11.00;99.90;;;;;;4973160;28;20535;-66
2022/09/26 02:31:59;;;;;;;11.75;6.95;;;11.00;99.90;;;;;;4955939;28;20202;-66
2022/09/26 02:34:30;;;;;;;12.97;7.07;;;11.00;99.90;;;;;;4955517;28;20222;-67
2022/09/26 02:36:59;;;;;;;8.97;6.80;;;11.00;99.90;;;;;;4955895;28;20203;-67
2022/09/26 02:39:33;;;;;;;13.23;6.47;;;11.00;99.90;;;;;;4955832;28;20635;-67
2022/09/26 02:42:20;;;;;;;11.38;6.97;;;11.00;99.90;;;;;;4955898;28;20179;-67
2022/09/26 02:45:01;;;;;;;11.13;6.43;;;10.90;99.90;;;;;;4955728;28;20236;-66
2022/09/26 02:47:59;;;;;;;10.73;6.87;;;10.80;99.90;;;;;;4956763;28;20213;-67
2022/09/26 02:50:48;;;;;;;10.77;6.40;;;10.80;99.90;;;;;;4955524;28;20202;-66
2022/09/26 02:53:31;;;;;;;14.33;6.43;;;10.80;99.90;;;;;;4959292;28;20190;-66
2022/09/26 02:56:10;;;;;;;10.00;6.07;;;10.90;99.90;;;;;;4959456;28;20214;-67
2022/09/26 02:58:47;;;;;;;12.23;6.30;;;10.90;99.90;;;;;;4959227;28;20187;-66
2022/09/26 03:01:24;;;;;;;9.53;5.47;;;10.80;99.90;;;;;;4959138;28;20186;-68
2022/09/26 03:04:02;;;;;;;15.43;6.30;;;10.90;99.90;;;;;;4959324;28;20225;-67
2022/09/26 03:06:36;;;;;;;10.57;5.72;;;10.80;99.90;;;;;;4959089;28;20186;-67
2022/09/26 03:09:06;;;;;;;10.70;6.23;;;10.90;99.90;;;;;;4958735;28;20225;-66
2022/09/26 03:11:35;;;;;;;9.83;5.53;;;10.80;99.90;;;;;;4975482;28;20556;-65
2022/09/26 03:14:04;;;;;;;11.30;5.87;;;10.80;99.90;;;;;;4958984;28;20564;-66
2022/09/26 03:16:36;;;;;;;8.30;5.47;;;10.80;99.90;;;;;;4958893;28;20194;-67
2022/09/26 03:19:10;;;;;;;8.20;5.13;;;10.80;99.90;;;;;;4958170;28;20210;-66
2022/09/26 03:21:40;;;;;;;10.30;4.83;;;10.80;99.90;;;;;;4976033;28;20213;-67
2022/09/26 03:24:09;;;;;;;9.53;5.20;;;10.80;99.90;;;;;;4958692;28;20218;-66
2022/09/26 03:26:40;;;;;;;9.27;5.30;;;10.80;99.90;;;;;;4958561;28;20209;-67
2022/09/26 03:29:09;;;;;;;7.23;5.10;;;10.80;99.90;;;;;;4958773;28;20205;-67
2022/09/26 03:31:39;;;;;;;9.95;5.75;;;10.80;99.90;;;;;;4958471;28;20677;-65
2022/09/26 03:34:10;;;;;;;10.33;5.70;;;10.80;99.90;;;;;;4958504;28;20209;-66
2022/09/26 03:36:41;;;;;;;9.77;6.18;;;10.80;99.90;;;;;;4958724;28;20195;-66
2022/09/26 03:39:13;;;;;;;11.30;5.87;;;10.80;99.90;;;;;;4958527;28;20194;-66
2022/09/26 03:42:01;;;;;;;10.02;5.93;;;10.80;99.90;;;;;;4958552;28;20646;-66
2022/09/26 03:44:31;;;;;;;10.33;6.13;;;10.70;99.90;;;;;;4958237;28;20226;-66
2022/09/26 03:47:35;;;;;;;11.93;5.67;;;10.70;99.90;;;;;;4975361;28;20191;-66
2022/09/26 03:50:05;;;;;;;12.70;6.50;;;10.70;99.90;;;;;;4958291;28;20205;-66
2022/09/26 03:52:36;;;;;;;10.07;6.47;;;10.70;99.90;;;;;;4958117;28;20214;-64
2022/09/26 03:55:05;;;;;;;11.03;6.60;;;10.70;99.90;;;;;;4958055;28;20701;-67
2022/09/26 03:57:35;;;;;;;10.33;6.80;;;10.70;99.90;;;;;;4958170;28;20186;-66
2022/09/26 04:00:16;;;;;;;13.47;6.10;;;10.60;99.90;;;;;;4957380;28;20183;-65
2022/09/26 04:02:46;;;;;;;14.27;6.53;;;10.60;99.90;;;;;;4957245;28;20203;-66
2022/09/26 04:05:31;;;;;;;10.90;6.50;;;10.60;99.90;;;;;;4957816;28;20725;-65
2022/09/26 04:08:02;;;;;;;12.40;6.80;;;10.60;99.90;;;;;;4957931;28;20199;-65
2022/09/26 04:10:32;;;;;;;12.00;6.33;;;10.60;99.90;;;;;;4957998;28;20183;-66
2022/09/26 04:13:02;;;;;;;10.80;6.37;;;10.60;99.90;;;;;;4957928;28;20209;-66
2022/09/26 04:15:30;;;;;;;8.97;6.50;;;10.60;99.90;;;;;;4974952;28;20225;-66
2022/09/26 04:18:07;;;;;;;8.10;5.93;;;10.60;99.90;;;;;;4957788;28;20191;-65
2022/09/26 04:20:35;;;;;;;10.90;6.60;;;10.60;99.90;;;;;;4957639;28;20199;-66
2022/09/26 04:23:05;;;;;;;11.53;6.90;;;10.60;99.90;;;;;;4957691;28;20206;-66
2022/09/26 04:25:37;;;;;;;12.00;6.80;;;10.60;99.90;;;;;;4974641;28;20241;-66
2022/09/26 04:28:07;;;;;;;11.63;6.60;;;10.60;99.90;;;;;;4957572;28;20190;-66
2022/09/26 04:30:38;;;;;;;12.33;6.90;;;10.70;99.90;;;;;;4957613;28;20573;-67
2022/09/26 04:33:07;;;;;;;13.60;6.93;;;10.60;99.90;;;;;;4957473;28;20194;-67
2022/09/26 04:35:45;;;;;;;10.67;7.57;;;10.60;99.90;;;;;;4957269;28;20249;-65
2022/09/26 04:38:17;;;;;;;9.43;6.80;;;10.60;99.90;;;;;;4957264;28;20210;-67
2022/09/26 04:40:46;;;;;;;13.00;7.30;;;10.60;99.90;;;;;;4957301;28;20198;-66
2022/09/26 04:43:14;;;;;;;12.00;7.03;;;10.50;99.90;;;;;;4974540;28;20199;-67
2022/09/26 04:45:44;;;;;;;12.33;6.97;;;10.40;99.90;;;;;;4974223;28;20240;-66
2022/09/26 04:48:14;;;;;;;8.73;7.13;;;10.40;99.90;;;;;;4957320;28;20727;-67
2022/09/26 04:51:04;;;;;;;15.47;8.90;;;10.50;99.90;;;;;;4957289;28;20193;-66
2022/09/26 04:53:36;;;;;;;13.73;8.00;;;10.50;99.90;;;;;;4957267;28;20178;-66
2022/09/26 04:56:15;;;;;;;12.33;8.30;;;10.40;99.90;;;;;;4957077;28;20214;-66
2022/09/26 04:58:44;;;;;;;13.43;8.93;;;10.40;99.90;;;;;;4957005;28;20197;-65
2022/09/26 05:01:16;;;;;;;14.47;8.97;;;10.40;99.90;;;;;;4957043;28;20194;-65
2022/09/26 05:03:57;;;;;;;13.30;8.93;;;10.30;99.90;;;;;;4956964;28;20550;-67
2022/09/26 05:06:27;;;;;;;13.07;9.10;;;10.30;99.90;;;;;;4957262;28;20234;-65
2022/09/26 05:08:57;;;;;;;12.73;9.33;;;10.30;99.90;;;;;;4973979;28;20194;-65
2022/09/26 05:11:46;;;;;;;13.30;9.50;;;10.30;99.90;;;;;;4973652;28;20703;-66
2022/09/26 05:14:15;;;;;;;12.73;9.33;;;10.30;99.90;;;;;;4956648;28;20198;-67
2022/09/26 05:16:46;;;;;;;16.43;10.33;;;10.30;99.90;;;;;;4956703;28;20647;-66
2022/09/26 05:19:16;;;;;;;19.77;11.40;;;10.30;99.90;;;;;;4956836;28;20194;-66
2022/09/26 05:22:17;;;;;;;16.17;10.43;;;10.30;99.90;;;;;;4970106;28;20217;-65
2022/09/26 05:27:33;;;;;;;16.67;11.17;;;10.20;99.90;;;;;;4956625;28;20198;-66
2022/09/26 05:30:02;;;;;;;19.67;11.63;;;10.20;99.90;;;;;;4956478;28;20642;-66
2022/09/26 05:32:31;;;;;;;14.77;10.80;;;10.20;99.90;;;;;;4956479;28;20198;-67
2022/09/26 05:35:04;;;;;;;19.60;10.93;;;10.10;99.90;;;;;;4956531;28;20698;-66
2022/09/26 05:37:34;;;;;;;21.03;12.60;;;10.20;99.90;;;;;;4956439;28;20209;-66
2022/09/26 05:43:00;;;;;;;18.63;12.17;;;10.10;99.90;;;;;;4973517;28;20194;-67
2022/09/26 05:45:30;;;;;;;21.57;13.13;;;10.10;99.90;;;;;;4956303;28;20226;-66
2022/09/26 05:47:59;;;;;;;17.40;12.47;;;10.10;99.90;;;;;;4956383;28;20194;-67
2022/09/26 05:50:28;;;;;;;17.40;12.27;;;10.10;99.90;;;;;;4956296;28;20566;-67
2022/09/26 05:52:57;;;;;;;17.40;11.80;;;10.10;99.90;;;;;;4956291;28;20191;-68
2022/09/26 05:55:29;;;;;;;17.70;11.97;;;10.10;99.90;;;;;;4956304;28;20222;-66
2022/09/26 05:57:58;;;;;;;19.33;12.27;;;10.00;99.90;;;;;;4973362;28;20206;-65
2022/09/26 06:00:41;;;;;;;18.33;12.67;;;10.00;99.90;;;;;;4956490;28;20552;-67
2022/09/26 06:03:10;;;;;;;20.43;12.10;;;10.00;99.90;;;;;;4956386;28;20191;-66
2022/09/26 06:05:52;;;;;;;18.77;12.43;;;10.00;99.90;;;;;;4956663;28;20229;-66
2022/09/26 06:08:28;;;;;;;19.77;14.20;;;10.10;99.90;;;;;;4956469;28;20183;-67
2022/09/26 06:11:31;;;;;;;20.80;15.20;;;10.00;99.90;;;;;;4956032;28;20201;-67
2022/09/26 06:14:00;;;;;;;21.17;14.67;;;10.00;99.90;;;;;;4955761;28;20229;-66
2022/09/26 06:16:29;;;;;;;23.00;14.60;;;10.00;99.90;;;;;;4956000;28;20226;-66
2022/09/26 06:19:01;;;;;;;21.80;15.00;;;10.10;99.90;;;;;;4956151;28;20206;-66
2022/09/26 06:21:31;;;;;;;20.73;16.03;;;10.10;99.90;;;;;;4956272;28;20202;-66
2022/09/26 06:24:05;;;;;;;23.17;16.20;;;10.00;99.90;;;;;;4959740;28;20195;-66
2022/09/26 06:26:36;;;;;;;21.63;17.47;;;10.10;99.90;;;;;;4959754;28;20229;-64
2022/09/26 06:29:06;;;;;;;24.63;18.70;;;10.10;99.90;;;;;;4959802;28;20194;-65
2022/09/26 06:31:37;;;;;;;23.70;17.23;;;10.10;99.90;;;;;;4959720;28;20178;-65
2022/09/26 06:34:26;;;;;;;25.43;17.57;;;10.10;99.90;;;;;;4972952;28;20242;-66
2022/09/26 06:37:09;;;;;;;31.80;18.30;;;10.20;99.90;;;;;;4976680;28;20255;-65
2022/09/26 06:39:39;;;;;;;25.60;18.67;;;10.10;99.90;;;;;;4958941;28;20202;-66
2022/09/26 06:42:09;;;;;;;27.23;19.40;;;10.20;99.90;;;;;;4959491;28;20217;-67
2022/09/26 06:44:57;;;;;;;29.77;19.30;;;10.20;99.90;;;;;;4959379;28;20210;-67
2022/09/26 06:47:47;;;;;;;28.03;18.10;;;10.20;99.90;;;;;;4959890;28;20190;-65
2022/09/26 06:50:35;;;;;;;23.23;17.90;;;10.30;99.90;;;;;;4959422;28;20197;-68
2022/09/26 06:53:04;;;;;;;24.60;17.73;;;10.30;99.90;;;;;;4959296;28;20203;-66
2022/09/26 06:55:38;;;;;;;24.67;17.83;;;10.30;99.90;;;;;;4959264;28;20218;-66
2022/09/26 06:58:08;;;;;;;24.07;17.47;;;10.50;99.90;;;;;;4959204;28;20567;-66
2022/09/26 07:00:50;;;;;;;30.63;19.30;;;10.60;99.90;;;;;;4959233;28;20559;-66
2022/09/26 07:03:28;;;;;;;29.00;20.37;;;10.50;99.90;;;;;;4958725;28;20198;-66
2022/09/26 07:06:06;;;;;;;23.43;17.97;;;10.60;99.90;;;;;;4959063;28;20218;-65
2022/09/26 07:08:36;;;;;;;21.63;16.73;;;10.60;99.90;;;;;;4958850;28;20202;-67
2022/09/26 07:11:46;;;;;;;28.03;17.60;;;10.70;99.90;;;;;;4958917;28;20199;-65
2022/09/26 07:14:36;;;;;;;21.63;17.03;;;10.80;99.90;;;;;;4959113;28;20600;-68
2022/09/26 07:17:15;;;;;;;20.50;15.83;;;10.70;99.90;;;;;;4958941;28;20197;-66
2022/09/26 07:20:09;;;;;;;24.43;16.27;;;10.80;99.90;;;;;;4958983;28;20560;-67
2022/09/26 07:22:56;;;;;;;20.40;15.70;;;10.90;99.90;;;;;;4976041;28;20198;-68
2022/09/26 07:25:24;;;;;;;23.83;17.03;;;11.00;99.90;;;;;;4958616;28;20215;-67
2022/09/26 07:27:53;;;;;;;20.90;15.53;;;11.00;99.90;;;;;;4958689;28;20237;-67
2022/09/26 07:30:33;;;;;;;22.08;15.25;;;11.00;99.90;;;;;;4958666;28;20205;-66
2022/09/26 07:33:12;;;;;;;18.02;13.98;;;11.20;99.90;;;;;;4957787;28;20189;-67
2022/09/26 07:35:48;;;;;;;19.20;13.85;;;11.40;99.90;;;;;;4958397;28;20226;-67
2022/09/26 07:38:17;;;;;;;16.70;13.90;;;11.50;99.90;;;;;;4958665;28;20578;-67
2022/09/26 07:40:50;;;;;;;19.17;14.20;;;11.50;99.90;;;;;;4959006;28;20191;-66
2022/09/26 07:43:19;;;;;;;20.27;14.27;;;11.70;99.90;;;;;;4958397;28;20187;-67
2022/09/26 07:51:54;;;;;;;17.38;14.13;;;12.00;99.90;;;;;;4975561;28;20198;-67
2022/09/26 07:54:28;;;;;;;17.85;14.18;;;12.20;99.90;;;;;;4958460;28;20584;-67
2022/09/26 07:57:15;;;;;;;16.45;13.30;;;12.20;99.90;;;;;;4975565;28;20547;-67
2022/09/26 08:00:12;;;;;;;17.52;11.88;;;12.40;99.90;;;;;;4942222;28;20190;-67
2022/09/26 08:02:52;;;;;;;15.38;11.93;;;12.40;99.90;;;;;;4958327;28;20186;-68
2022/09/26 08:05:21;;;;;;;13.80;11.38;;;12.50;99.90;;;;;;4957944;28;20214;-68
2022/09/26 08:07:51;;;;;;;17.17;11.15;;;12.60;99.90;;;;;;4958185;28;20238;-67
2022/09/26 08:10:38;;;;;;;14.23;10.25;;;12.70;99.90;;;;;;4975319;28;20182;-67
2022/09/26 08:13:26;;;;;;;15.07;9.63;;;12.80;99.90;;;;;;4975214;28;20563;-67
2022/09/26 08:16:07;;;;;;;14.60;10.13;;;12.80;99.90;;;;;;4941766;28;20233;-67
2022/09/26 08:18:42;;;;;;;13.70;9.05;;;12.80;99.90;;;;;;4957988;28;20178;-67
2022/09/26 08:21:11;;;;;;;11.88;9.18;;;12.80;99.90;;;;;;4957740;28;20201;-67
2022/09/26 08:23:40;;;;;;;13.50;8.35;;;12.80;99.90;;;;;;4957555;28;20209;-66
2022/09/26 08:26:44;;;;;;;12.75;8.27;;;12.90;99.90;;;;;;4957573;28;20616;-67
2022/09/26 08:29:23;;;;;;;12.63;7.43;;;13.00;99.90;;;;;;4957697;28;20190;-68
2022/09/26 08:31:54;;;;;;;10.18;7.35;;;13.10;99.90;;;;;;4957622;28;20182;-67
2022/09/26 08:34:24;;;;;;;10.95;7.07;;;13.20;99.90;;;;;;4974748;28;20190;-67
2022/09/26 08:37:20;;;;;;;8.13;6.70;;;13.40;99.90;;;;;;4974633;28;20202;-67
2022/09/26 08:40:08;;;;;;;8.45;6.85;;;13.40;99.90;;;;;;4974928;28;20257;-67
2022/09/26 08:43:05;;;;;;;10.73;6.85;;;13.60;99.90;;;;;;4974584;28;20202;-67
2022/09/26 08:49:11;;;;;;;9.93;6.22;;;13.70;99.90;;;;;;4974468;28;20236;-67
2022/09/26 08:51:45;;;;;;;10.98;6.05;;;13.70;99.90;;;;;;4957171;28;20577;-67
2022/09/26 08:54:17;;;;;;;10.18;6.15;;;13.80;99.90;;;;;;4974380;28;20557;-66
2022/09/26 08:56:49;;;;;;;13.00;6.15;;;13.90;99.90;;;;;;4956857;28;20195;-67
2022/09/26 08:59:33;;;;;;;9.13;5.50;;;14.00;99.90;;;;;;4956948;28;20195;-68
2022/09/26 09:02:11;;;;;;;8.52;5.43;;;13.90;99.90;;;;;;4957182;28;20647;-67
2022/09/26 09:04:56;;;;;;;9.30;4.95;;;13.90;99.90;;;;;;4956896;28;20218;-67
2022/09/26 09:07:27;;;;;;;6.80;4.72;;;13.90;99.90;;;;;;4956979;28;20214;-68
2022/09/26 09:10:00;;;;;;;5.70;3.88;;;13.80;99.90;;;;;;4957006;28;20643;-67
2022/09/26 09:13:00;;;;;;;6.72;4.07;;;13.90;99.90;;;;;;4974152;28;20203;-68
2022/09/26 09:15:56;;;;;;;9.55;4.78;;;14.00;99.90;;;;;;4974047;28;20729;-67
2022/09/26 09:18:40;;;;;;;6.72;4.25;;;14.00;99.90;;;;;;4956967;28;20182;-67
2022/09/26 09:21:39;;;;;;;5.55;4.32;;;14.20;99.90;;;;;;4973568;28;20561;-66
2022/09/26 09:24:31;;;;;;;6.22;3.50;;;14.10;99.90;;;;;;4956713;28;20190;-67
2022/09/26 09:27:15;;;;;;;6.28;3.58;;;14.00;99.90;;;;;;4956485;28;20678;-68
2022/09/26 09:30:15;;;;;;;8.65;3.42;;;13.90;99.90;;;;;;4956709;28;20190;-68
2022/09/26 09:33:10;;;;;;;6.72;3.63;;;14.00;99.90;;;;;;4973759;28;20198;-69
2022/09/26 09:35:47;;;;;;;7.10;3.75;;;14.00;99.90;;;;;;4956404;28;20222;-68
2022/09/26 09:38:40;;;;;;;5.53;3.70;;;14.10;99.90;;;;;;4956382;28;20206;-69
2022/09/26 09:41:18;;;;;;;7.45;3.58;;;14.20;99.90;;;;;;4956507;28;20187;-69
2022/09/26 09:43:49;;;;;;;6.65;3.40;;;14.20;99.90;;;;;;4973787;28;20199;-68
2022/09/26 09:46:23;;;;;;;6.60;3.10;;;14.30;99.90;;;;;;4956553;28;20577;-67
2022/09/26 09:48:58;;;;;;;8.80;3.15;;;14.40;99.90;;;;;;4956473;28;20218;-69
2022/09/26 09:51:38;;;;;;;7.57;3.10;;;14.40;99.90;;;;;;4956561;28;20197;-67
2022/09/26 09:54:18;;;;;;;7.30;2.97;;;14.40;99.90;;;;;;4956232;28;20198;-69
2022/09/26 09:57:10;;;;;;;4.55;2.85;;;14.60;99.90;;;;;;4956952;28;20195;-68
2022/09/26 10:00:06;;;;;;;7.68;3.15;;;14.60;99.90;;;;;;4960316;28;20646;-67
2022/09/26 10:03:00;;;;;;;7.22;3.33;;;14.80;99.90;;;;;;4977482;28;20191;-68
2022/09/26 10:05:41;;;;;;;5.28;2.75;;;14.90;99.90;;;;;;4960234;28;20221;-68
2022/09/26 10:08:16;;;;;;;3.85;2.65;;;14.80;99.90;;;;;;4960218;28;20218;-68
2022/09/26 10:11:25;;;;;;;6.97;2.80;;;14.70;99.90;;;;;;4977318;28;20197;-66
2022/09/26 10:14:02;;;;;;;5.32;2.50;;;14.70;99.90;;;;;;4977304;28;20199;-68
2022/09/26 10:17:17;;;;;;;4.57;2.28;;;14.70;99.90;;;;;;4977179;28;20551;-67
2022/09/26 10:20:35;;;;;;;7.35;2.80;;;14.70;99.90;;;;;;4959972;28;20187;-68
2022/09/26 10:23:12;;;;;;;4.75;2.42;;;14.60;99.90;;;;;;4959959;28;20194;-68
2022/09/26 10:25:47;;;;;;;5.65;2.78;;;14.50;99.90;;;;;;4959769;28;20237;-67
2022/09/26 10:28:29;;;;;;;7.68;3.55;;;14.50;99.90;;;;;;4959688;28;20225;-67
2022/09/26 10:31:04;;;;;;;5.43;3.00;;;14.70;99.90;;;;;;4959686;28;20663;-69
2022/09/26 10:33:45;;;;;;;9.00;3.15;;;14.70;99.90;;;;;;4959703;28;20641;-68
2022/09/26 10:36:20;;;;;;;9.20;3.17;;;14.80;99.90;;;;;;4976984;28;20210;-67
2022/09/26 10:41:57;;;;;;;7.32;3.15;;;15.30;99.90;;;;;;4955944;28;20214;-68
2022/09/26 10:44:28;;;;;;;7.05;3.08;;;15.40;99.90;;;;;;4996585;28;20616;-68
2022/09/26 10:47:12;;;;;;;7.43;2.88;;;15.30;99.90;;;;;;4996396;28;20190;-68
2022/09/26 10:50:05;;;;;;;4.82;3.08;;;15.30;99.90;;;;;;4998374;28;20232;-68
2022/09/26 10:53:09;;;;;;;8.80;3.10;;;15.20;99.90;;;;;;4964353;28;20534;-67
2022/09/26 10:55:44;;;;;;;5.15;2.80;;;15.30;99.90;;;;;;4996458;28;20226;-68
2022/09/26 10:58:18;;;;;;;4.85;2.63;;;15.40;99.90;;;;;;4980829;28;20196;-68
2022/09/26 11:00:49;;;;;;;6.85;2.92;;;15.70;99.90;;;;;;4959349;28;20191;-67
2022/09/26 11:03:32;;;;;;;4.35;2.58;;;15.80;99.90;;;;;;4959218;28;20186;-67
2022/09/26 11:06:32;;;;;;;5.93;2.83;;;15.90;99.70;;;;;;4960925;28;20744;-67
2022/09/26 11:09:19;;;;;;;7.70;2.78;;;16.20;99.60;;;;;;4958949;28;20218;-68
2022/09/26 11:12:22;;;;;;;9.95;2.60;;;16.40;99.80;;;;;;4976384;28;20182;-68
2022/09/26 11:14:56;;;;;;;6.20;2.40;;;16.60;99.00;;;;;;4958945;28;20219;-68
2022/09/26 11:17:42;;;;;;;8.43;2.92;;;16.50;98.10;;;;;;4959204;28;20187;-69
2022/09/26 11:20:26;;;;;;;5.68;2.50;;;16.50;98.70;;;;;;4958940;28;20183;-68
2022/09/26 11:23:03;;;;;;;8.00;2.58;;;16.50;96.60;;;;;;4958968;28;20190;-69
2022/09/26 11:25:40;;;;;;;5.60;2.50;;;16.30;98.10;;;;;;4958884;28;20681;-67
2022/09/26 11:28:15;;;;;;;4.60;2.47;;;16.10;97.50;;;;;;4976152;28;20568;-67
2022/09/26 11:31:14;;;;;;;6.68;2.95;;;16.00;96.60;;;;;;4958797;28;20191;-68
2022/09/26 11:33:48;;;;;;;4.70;2.40;;;15.80;97.00;;;;;;4958940;28;20190;-67
2022/09/26 11:37:07;;;;;;;5.03;2.25;;;15.70;97.90;;;;;;4973683;28;20211;-67
2022/09/26 11:39:53;;;;;;;5.72;2.22;;;15.50;97.80;;;;;;4958520;28;20195;-67
2022/09/26 11:42:32;;;;;;;4.28;2.15;;;15.40;97.80;;;;;;4958506;28;20194;-67
2022/09/26 11:45:04;;;;;;;6.05;2.00;;;15.30;97.70;;;;;;4958452;28;20217;-68
2022/09/26 11:48:24;;;;;;;3.70;2.15;;;15.30;98.30;;;;;;4975086;28;20198;-67
2022/09/26 11:51:22;;;;;;;5.82;1.98;;;15.10;98.10;;;;;;4938898;28;20760;-67
2022/09/26 11:54:12;;;;;;;4.05;2.28;;;15.10;98.50;;;;;;4958570;28;20179;-67
2022/09/26 11:56:56;;;;;;;4.03;2.25;;;15.20;97.80;;;;;;4975646;28;20187;-68
2022/09/26 11:59:45;;;;;;;6.20;2.30;;;15.30;98.10;;;;;;4975456;28;20190;-70
2022/09/26 12:02:32;;;;;;;4.90;2.28;;;15.60;96.80;;;;;;4975422;28;20194;-68
2022/09/26 12:05:15;;;;;;;4.55;2.25;;;15.80;96.80;;;;;;4975284;28;20226;-68
2022/09/26 12:07:48;;;;;;;5.43;2.60;;;15.90;96.70;;;;;;4975267;28;20198;-69
2022/09/26 12:10:29;;;;;;;4.60;2.00;;;16.20;96.40;;;;;;4975182;28;20215;-69
2022/09/26 12:13:17;;;;;;;6.68;2.15;;;16.50;96.50;;;;;;4975325;28;20593;-68
2022/09/26 12:15:54;;;;;;;4.50;2.00;;;16.60;95.70;;;;;;4975088;28;20218;-68
2022/09/26 12:18:33;;;;;;;5.28;2.70;;;16.60;93.80;;;;;;4975333;28;20191;-70
2022/09/26 12:21:16;;;;;;;5.40;1.80;;;16.50;93.40;;;;;;4974444;28;20187;-69
2022/09/26 12:23:51;;;;;;;4.90;2.13;;;16.40;94.20;;;;;;4975060;28;20191;-69
2022/09/26 12:26:30;;;;;;;4.07;2.00;;;16.40;94.50;;;;;;4974961;28;20218;-70
2022/09/26 12:29:23;;;;;;;4.78;1.75;;;16.50;93.30;;;;;;4974835;28;20186;-68
2022/09/26 12:32:07;;;;;;;4.07;2.03;;;16.40;93.40;;;;;;4976585;28;20213;-68
2022/09/26 12:34:58;;;;;;;4.50;2.33;;;16.50;93.40;;;;;;4975006;28;20225;-69
2022/09/26 12:37:42;;;;;;;8.52;2.45;;;16.40;92.50;;;;;;4974681;28;20206;-68
2022/09/26 12:40:27;;;;;;;5.47;1.70;;;16.20;92.90;;;;;;4957741;28;20646;-67
2022/09/26 12:43:24;;;;;;;5.57;1.90;;;16.10;93.50;;;;;;4974725;28;20190;-69
2022/09/26 12:46:23;;;;;;;2.75;1.77;;;16.10;93.70;;;;;;4974699;28;20728;-68
2022/09/26 12:49:14;;;;;;;3.35;1.98;;;16.10;93.40;;;;;;4975029;28;20217;-68
2022/09/26 12:51:46;;;;;;;3.13;1.67;;;16.10;93.10;;;;;;4974451;28;20582;-68
2022/09/26 12:54:47;;;;;;;7.90;2.63;;;16.10;93.10;;;;;;4974365;28;20662;-68
2022/09/26 12:57:29;;;;;;;7.30;3.13;;;16.30;92.80;;;;;;4957232;28;20198;-69
2022/09/26 13:00:15;;;;;;;4.78;1.60;;;16.50;93.10;;;;;;4974454;28;20551;-68
2022/09/26 13:03:34;;;;;;;3.88;1.83;;;16.80;93.50;;;;;;4974374;28;20190;-69
2022/09/26 13:06:43;;;;;;;4.53;1.50;;;17.00;92.70;;;;;;4877297;29;20629;-68
2022/09/26 13:09:48;;;;;;;2.45;1.50;;;17.00;91.00;;;;;;4877133;29;20208;-68
2022/09/26 13:12:32;;;;;;;3.42;1.83;;;16.80;91.40;;;;;;4974252;28;20186;-68
2022/09/26 13:15:14;;;;;;;4.15;1.50;;;16.70;91.20;;;;;;4974126;28;20225;-67
2022/09/26 13:17:46;;;;;;;3.75;1.20;;;16.50;91.30;;;;;;4974133;28;20187;-67
2022/09/26 13:20:19;;;;;;;7.20;2.63;;;16.20;91.40;;;;;;4974131;28;20195;-68
2022/09/26 13:22:53;;;;;;;4.45;1.40;;;16.10;92.20;;;;;;4973886;28;20187;-68
2022/09/26 13:25:28;;;;;;;2.88;1.50;;;16.10;91.80;;;;;;4974111;28;20226;-67
2022/09/26 13:28:03;;;;;;;4.20;1.55;;;15.90;92.20;;;;;;4973824;28;20194;-68
2022/09/26 13:30:36;;;;;;;2.38;1.35;;;15.80;92.40;;;;;;4973838;28;20665;-70
2022/09/26 13:33:12;;;;;;;2.40;1.50;;;15.80;92.30;;;;;;4973888;28;20187;-68
2022/09/26 13:35:46;;;;;;;2.30;1.40;;;15.70;92.60;;;;;;4973787;28;20214;-67
2022/09/26 13:38:33;;;;;;;5.20;1.58;;;15.50;92.00;;;;;;4973435;28;20223;-70
2022/09/26 13:41:10;;;;;;;3.10;1.55;;;15.30;92.60;;;;;;4973954;28;20189;-68
2022/09/26 13:43:59;;;;;;;2.88;1.50;;;15.20;92.90;;;;;;4973757;28;20190;-67
2022/09/26 13:46:38;;;;;;;4.22;1.40;;;15.10;92.20;;;;;;4973594;28;20218;-68
2022/09/26 13:49:26;;;;;;;2.60;1.35;;;15.00;92.70;;;;;;4973621;28;20209;-68
2022/09/26 13:52:09;;;;;;;2.40;1.23;;;15.00;93.40;;;;;;4973529;28;20218;-68
2022/09/26 13:54:55;;;;;;;7.78;1.50;;;15.00;93.10;;;;;;4973531;28;20221;-68
2022/09/26 13:57:31;;;;;;;2.92;1.00;;;14.80;92.80;;;;;;4973581;28;20186;-69
2022/09/26 14:00:00;;;;;;;2.65;0.90;;;14.80;93.00;;;;;;4973453;28;20198;-68
2022/09/26 14:02:33;;;;;;;2.00;0.88;;;14.70;92.60;;;;;;4973516;28;20199;-67